Currently 67°F in Simi Valley, California, USA
67°F
67°F / 53°F
6 mph E
0.00"
Friday, November 27, 2020 11:38 AM PST

Simi Valley, California Weather Summary
Last 36 Hours

Temperature Winds Hourly Humidity Dewpoint
Time Report Norm Report Norm Max Gusts Precip. Rpt. Norm Rpt. Norm Pressure
1,2Fri 11:38 AM  66.6°F  67°F  6 mph E  6 mph  21 mph  0.00"  16%  42%  17°F  43°F  30.20"
Fri 11:00 AM  65.7°F  66°F  8 mph E  6 mph  23 mph  0.00"  16%  44%  17°F  43°F  30.21"
Fri 10:00 AM  62.8°F  64°F  8 mph E  6 mph  27 mph  0.00"  16%  48%  14°F  43°F  30.22"
Fri 09:00 AM  59.2°F  60°F  10 mph E  5 mph  26 mph  0.00"  19%  54%  15°F  43°F  30.22"
Fri 08:00 AM  55.4°F  56°F  2 mph S  5 mph  22 mph  0.00"  24%  58%  17°F  41°F  30.21"
3Fri 07:31 AM  53.1°F  54°F  6 mph E  5 mph  17 mph  ----  29%  59%  21°F  40°F  30.21"
Fri 07:00 AM  53.4°F  53°F  5 mph E  5 mph  29 mph  0.00"  25%  60%  17°F  39°F  30.21"
Fri 06:00 AM  53.4°F  53°F  12 mph E  5 mph  26 mph  0.00"  25%  60%  17°F  39°F  30.19"
Fri 05:00 AM  53.7°F  54°F  9 mph NE  4 mph  17 mph  0.00"  25%  59%  17°F  39°F  30.17"
Fri 04:00 AM  54.2°F  54°F  3 mph E  4 mph  17 mph  0.00"  25%  59%  17°F  39°F  30.17"
Fri 03:00 AM  54.6°F  54°F  4 mph E  4 mph  15 mph  0.00"  24%  59%  17°F  39°F  30.16"
Fri 02:00 AM  54.8°F  54°F  4 mph E  4 mph  24 mph  0.00"  25%  59%  18°F  40°F  30.16"
Fri 01:00 AM  54.5°F  55°F  5 mph NE  4 mph  14 mph  0.00"  26%  59%  18°F  40°F  30.17"
Fri 12:00 AM  56.0°F  55°F  5 mph E  4 mph  18 mph  0.00"  24%  59%  18°F  40°F  30.17"
Thu 11:00 PM  56.6°F  56°F  7 mph NE  4 mph  19 mph  0.00"  24%  58%  18°F  41°F  30.15"
Thu 10:00 PM  56.4°F  56°F  7 mph SE  4 mph  16 mph  0.00"  25%  57%  19°F  41°F  30.15"
Thu 09:00 PM  57.0°F  57°F  5 mph SE  5 mph  20 mph  0.00"  24%  57%  18°F  41°F  30.15"
Thu 08:00 PM  57.4°F  58°F  12 mph E  4 mph  26 mph  0.00"  24%  56%  19°F  42°F  30.14"
Thu 07:00 PM  58.1°F  59°F  4 mph E  4 mph  27 mph  0.00"  22%  55%  18°F  42°F  30.12"
Thu 06:00 PM  58.0°F  61°F  calm  4 mph  19 mph  0.00"  23%  54%  19°F  44°F  30.10"
Thu 05:00 PM  60.1°F  63°F  6 mph NE  4 mph  25 mph  0.00"  21%  51%  19°F  44°F  30.09"
Thu 04:00 PM  62.8°F  66°F  12 mph E  6 mph  29 mph  0.00"  20%  47%  19°F  44°F  30.06"
Thu 03:00 PM  64.2°F  68°F  12 mph NE  7 mph  32 mph  0.00"  21%  43%  22°F  44°F  30.06"
Thu 02:00 PM  65.0°F  69°F  8 mph E  7 mph  30 mph  0.00"  22%  41%  24°F  44°F  30.05"
Thu 01:00 PM  64.7°F  69°F  10 mph E  7 mph  35 mph  0.00"  23%  40%  25°F  43°F  30.05"
Thu 12:00 PM  62.9°F  68°F  10 mph NE  6 mph  34 mph  0.00"  27%  42%  27°F  43°F  30.07"
Thu 11:00 AM  62.1°F  66°F  8 mph E  6 mph  33 mph  0.00"  29%  45%  28°F  44°F  30.09"
Thu 10:00 AM  60.8°F  64°F  6 mph SE  6 mph  32 mph  0.00"  33%  49%  31°F  44°F  30.09"
Thu 09:00 AM  57.7°F  60°F  7 mph E  5 mph  17 mph  0.00"  43%  55%  34°F  43°F  30.09"
Thu 08:00 AM  53.7°F  56°F  7 mph NE  5 mph  17 mph  0.00"  53%  59%  36°F  41°F  30.08"
Thu 07:00 AM  51.9°F  54°F  6 mph E  5 mph  18 mph  0.00"  54%  61%  35°F  40°F  30.07"
Thu 06:00 AM  50.8°F  54°F  1 mph SE  5 mph  16 mph  0.00"  55%  61%  35°F  40°F  30.06"
Thu 05:00 AM  51.9°F  54°F  4 mph NE  4 mph  24 mph  0.00"  54%  60%  35°F  40°F  30.06"
Thu 04:00 AM  52.6°F  54°F  9 mph E  5 mph  25 mph  0.00"  52%  60%  35°F  40°F  30.05"
Thu 03:00 AM  52.4°F  54°F  9 mph E  5 mph  19 mph  0.00"  57%  60%  37°F  40°F  30.04"
Thu 02:00 AM  53.2°F  55°F  6 mph E  4 mph  14 mph  0.00"  60%  60%  39°F  40°F  30.05"
Thu 01:00 AM  53.5°F  55°F  7 mph NE  4 mph  16 mph  0.00"  64%  60%  41°F  41°F  30.05"
Thu 12:00 AM  49.7°F  55°F  7 mph E  4 mph  9 mph  0.00"  78%  59%  43°F  41°F  30.06"

  1. Current weather data. No green row appears if the current weather data is also the high or low for the current day.
  2. High temperature for the current day.
  3. Low temperature for the current day.

The Simi Valley, California weather pages are a service of WeatherCurrents.
Copyright ©2020  WeatherCurrents. All rights reserved. - Submit questions and comments - Privacy Policy

This page automatically refreshes every 10 minutes.